Klagenfurt Airport LOWK

Flugplatz Daten

Name: Klagenfurt Airport

Ident: LOWK

Lat: 46,64250183

Long: 14,33769989

Platzhöhe: 1470 ft

IataCode: KLU

City: Klagenfurt am Wörthersee

Homepage: http://www.klagenfurt-airport.com/

Metar

2021/10/25 18:20
LOWK 251820Z 31003KT CAVOK 04/02 Q1025 NOSIG

Taf

2021/10/25 18:21
TAF LOWK 251715Z 2518/2618 VRB03KT CAVOK TX09/2614Z TN01/2605Z
TEMPO 2522/2609 0500 BCFG BKN005 PROB40 2602/2607 0200 FG VV002

Webcams

Airport
Gewünschte Webcam nicht vorhanden? Dann fügen Sie eine hinzu. Sie wird dann so schnell wie möglich freigeschaltet
Url: Title: